Time;durP1;ratioP1;P1;durP2;ratioP2;P2;SDS_P1;SDS_P2;PMS_P1;PMS_P2;Temp;Humidity;BMP_temperature;BMP_pressure;BME280_temperature;BME280_humidity;BME280_pressure;Samples;Min_cycle;Max_cycle;Signal;HPM_P1;HPM_P2
2021/01/31 05:01:51;;;;;;;11.35;7.53;;;-6.30;99.90;;;;;;5329140;23;20248;-68
2021/01/31 05:04:18;;;;;;;13.05;6.47;;;-6.30;99.90;;;;;;4936987;29;20216;-67
2021/01/31 05:06:48;;;;;;;12.60;6.45;;;-6.40;99.90;;;;;;4936918;28;20245;-67
2021/01/31 05:09:17;;;;;;;10.90;5.30;;;-6.40;99.90;;;;;;4936951;29;20224;-67
2021/01/31 05:11:52;;;;;;;11.55;7.50;;;-6.40;99.90;;;;;;4924455;29;20246;-67
2021/01/31 05:14:33;;;;;;;10.35;6.80;;;-6.40;99.90;;;;;;4907131;29;20218;-67
2021/01/31 05:17:01;;;;;;;9.05;6.63;;;-6.50;99.90;;;;;;4915075;29;20202;-69
2021/01/31 05:19:31;;;;;;;19.80;9.95;;;-6.60;99.90;;;;;;4917777;29;20230;-67
2021/01/31 05:21:58;;;;;;;11.80;7.38;;;-6.50;99.90;;;;;;4917447;29;20226;-68
2021/01/31 05:24:25;;;;;;;19.27;8.52;;;-6.50;99.90;;;;;;4917295;29;20612;-68
2021/01/31 05:26:54;;;;;;;15.23;8.77;;;-6.50;99.90;;;;;;4917118;29;20278;-67
2021/01/31 05:29:23;;;;;;;9.95;6.18;;;-6.50;99.90;;;;;;4917708;29;20585;-67
2021/01/31 05:31:55;;;;;;;14.05;5.57;;;-6.50;99.90;;;;;;4916842;29;20260;-68
2021/01/31 05:34:34;;;;;;;18.48;8.13;;;-6.50;99.90;;;;;;4917750;29;20211;-68
2021/01/31 05:37:02;;;;;;;28.13;9.23;;;-6.60;99.90;;;;;;4917231;29;20266;-68
2021/01/31 05:39:41;;;;;;;23.77;7.55;;;-6.60;99.90;;;;;;4917543;29;20223;-68
2021/01/31 05:42:10;;;;;;;13.32;8.00;;;-6.70;99.90;;;;;;4916202;29;20285;-67
2021/01/31 05:44:37;;;;;;;17.85;6.78;;;-6.70;99.90;;;;;;4917583;29;20639;-67
2021/01/31 05:47:16;;;;;;;16.83;6.55;;;-6.60;99.90;;;;;;4916234;29;20211;-68
2021/01/31 05:49:45;;;;;;;10.35;5.53;;;-6.60;99.90;;;;;;4917500;29;20207;-69
2021/01/31 05:52:31;;;;;;;9.38;6.72;;;-6.60;99.90;;;;;;4915872;29;20581;-68
2021/01/31 05:54:58;;;;;;;11.85;6.53;;;-6.70;99.90;;;;;;4916644;29;20250;-68
2021/01/31 05:57:26;;;;;;;9.73;6.30;;;-6.70;99.90;;;;;;4898178;29;20238;-68
2021/01/31 05:59:53;;;;;;;14.85;6.78;;;-6.70;99.90;;;;;;4907816;29;20215;-68
2021/01/31 06:02:22;;;;;;;11.98;7.10;;;-6.70;99.90;;;;;;4916087;29;20285;-68
2021/01/31 06:04:49;;;;;;;12.55;5.72;;;-6.70;99.90;;;;;;4916914;29;20293;-67
2021/01/31 06:07:20;;;;;;;13.82;5.72;;;-6.70;99.90;;;;;;4917330;29;20210;-67
2021/01/31 06:09:48;;;;;;;11.43;6.20;;;-6.70;99.90;;;;;;4916606;29;20675;-68
2021/01/31 06:12:21;;;;;;;11.77;5.78;;;-6.70;99.90;;;;;;4916407;29;20616;-68
2021/01/31 06:14:50;;;;;;;9.52;6.03;;;-6.80;99.90;;;;;;4917431;29;20203;-68
2021/01/31 06:17:21;;;;;;;8.70;6.45;;;-6.70;99.90;;;;;;4916382;29;20222;-68
2021/01/31 06:19:50;;;;;;;15.90;6.32;;;-6.80;99.90;;;;;;4905240;29;20221;-68
2021/01/31 06:22:16;;;;;;;10.45;5.45;;;-6.70;99.90;;;;;;4898065;29;20311;-67
2021/01/31 06:24:47;;;;;;;8.80;5.25;;;-6.70;99.90;;;;;;4915936;29;20207;-66
2021/01/31 06:27:27;;;;;;;17.92;6.97;;;-6.70;99.90;;;;;;4916246;29;20211;-67
2021/01/31 06:30:03;;;;;;;8.15;4.80;;;-6.70;99.90;;;;;;4915800;29;20203;-69
2021/01/31 06:32:32;;;;;;;10.20;7.22;;;-6.70;99.90;;;;;;4915821;29;20226;-66
2021/01/31 06:35:01;;;;;;;12.55;6.03;;;-6.70;99.90;;;;;;4916958;29;20281;-68
2021/01/31 06:37:37;;;;;;;11.68;6.50;;;-6.70;99.90;;;;;;4916062;29;20716;-67
2021/01/31 06:40:16;;;;;;;8.15;5.97;;;-6.70;99.90;;;;;;4915632;29;20588;-67
2021/01/31 06:42:52;;;;;;;8.07;6.43;;;-6.70;99.90;;;;;;4914859;29;20280;-67
2021/01/31 06:45:30;;;;;;;7.25;5.40;;;-6.70;99.90;;;;;;4916390;29;20265;-67
2021/01/31 06:48:17;;;;;;;6.60;5.55;;;-6.70;99.90;;;;;;4915831;29;20206;-68
2021/01/31 06:50:59;;;;;;;11.27;6.30;;;-6.80;99.90;;;;;;4916768;29;20226;-68
2021/01/31 06:53:36;;;;;;;7.88;6.35;;;-6.80;99.90;;;;;;4916719;29;20222;-67
2021/01/31 06:56:29;;;;;;;10.20;5.82;;;-6.80;99.90;;;;;;4916883;29;20242;-68
2021/01/31 06:59:30;;;;;;;8.73;4.90;;;-6.80;99.90;;;;;;4924866;29;20258;-68
2021/01/31 07:02:09;;;;;;;14.32;5.30;;;-6.80;99.90;;;;;;4906231;29;20299;-68
2021/01/31 07:05:11;;;;;;;6.32;4.28;;;-6.80;99.90;;;;;;4923564;29;20501;-68
2021/01/31 07:08:03;;;;;;;4.82;4.30;;;-6.80;99.90;;;;;;4905620;29;20211;-68
2021/01/31 07:10:48;;;;;;;5.35;4.20;;;-6.90;99.90;;;;;;4919665;29;20240;-66
2021/01/31 07:13:32;;;;;;;4.70;4.25;;;-6.80;99.90;;;;;;4918181;29;20210;-68
2021/01/31 07:16:06;;;;;;;8.25;5.90;;;-6.80;99.90;;;;;;4919367;29;20244;-66
2021/01/31 07:18:43;;;;;;;7.47;5.00;;;-6.70;99.90;;;;;;4919893;29;20234;-69
2021/01/31 07:21:16;;;;;;;5.50;4.60;;;-6.70;99.90;;;;;;4918708;29;20640;-68
2021/01/31 07:23:45;;;;;;;11.43;6.63;;;-6.60;99.90;;;;;;4918993;29;20210;-70
2021/01/31 07:26:25;;;;;;;6.35;5.70;;;-6.60;99.90;;;;;;4919277;29;20238;-68
2021/01/31 07:28:56;;;;;;;12.70;5.63;;;-6.50;99.90;;;;;;4918587;29;20254;-67
2021/01/31 07:31:39;;;;;;;8.32;4.70;;;-6.50;99.90;;;;;;4933790;28;20293;-67
2021/01/31 07:34:11;;;;;;;6.00;4.63;;;-6.40;99.90;;;;;;4920986;29;20210;-68
2021/01/31 07:36:42;;;;;;;9.07;6.78;;;-6.30;99.90;;;;;;4918972;29;20219;-67
2021/01/31 07:39:13;;;;;;;8.80;5.53;;;-6.30;99.90;;;;;;4920502;29;20254;-67
2021/01/31 07:41:49;;;;;;;10.25;6.38;;;-6.30;99.90;;;;;;4918489;29;20230;-66
2021/01/31 07:44:18;;;;;;;8.20;5.43;;;-6.30;99.90;;;;;;4910427;29;20211;-68
2021/01/31 07:46:44;;;;;;;17.17;7.47;;;-6.30;99.90;;;;;;4918061;29;20206;-68
2021/01/31 07:49:11;;;;;;;11.70;7.85;;;-6.20;99.90;;;;;;4919412;29;20595;-69
2021/01/31 07:52:04;;;;;;;9.07;7.35;;;-6.10;99.90;;;;;;4918715;29;20226;-67
2021/01/31 07:54:34;;;;;;;7.43;6.10;;;-6.10;99.90;;;;;;4903776;29;20282;-67
2021/01/31 07:57:29;;;;;;;8.75;5.82;;;-6.10;99.90;;;;;;4919052;29;20218;-67
2021/01/31 07:59:55;;;;;;;8.48;5.35;;;-6.00;99.90;;;;;;4920060;29;20227;-68
2021/01/31 08:02:37;;;;;;;8.20;5.50;;;-5.90;99.90;;;;;;4919035;29;20238;-68
2021/01/31 08:05:04;;;;;;;21.48;7.43;;;-5.80;99.90;;;;;;4916495;29;20662;-68
2021/01/31 08:07:59;;;;;;;13.25;7.50;;;-5.80;99.90;;;;;;4913364;29;20207;-68
2021/01/31 08:10:45;;;;;;;14.40;7.45;;;-5.70;99.90;;;;;;4918754;29;20283;-67
2021/01/31 08:13:31;;;;;;;8.80;6.45;;;-5.60;99.90;;;;;;4917770;29;20206;-67
2021/01/31 08:15:57;;;;;;;12.70;7.22;;;-5.40;99.90;;;;;;4918419;29;20218;-67
2021/01/31 08:18:23;;;;;;;41.58;22.63;;;-5.30;99.90;;;;;;4917732;29;20210;-68
2021/01/31 08:20:51;;;;;;;55.47;23.13;;;-5.10;99.90;;;;;;4918509;29;20262;-68
2021/01/31 08:23:46;;;;;;;37.92;20.92;;;-4.90;99.90;;;;;;4915155;29;20245;-68
2021/01/31 08:26:37;;;;;;;10.45;8.25;;;-4.60;99.90;;;;;;4915742;29;20246;-67
2021/01/31 08:29:03;;;;;;;18.60;11.80;;;-4.50;99.90;;;;;;4917177;29;20458;-67
2021/01/31 08:31:29;;;;;;;15.52;9.05;;;-4.30;99.90;;;;;;4918532;29;20362;-67
2021/01/31 08:34:00;;;;;;;10.25;7.53;;;-4.20;99.90;;;;;;4909976;29;20651;-67
2021/01/31 08:36:29;;;;;;;12.52;8.88;;;-4.30;99.90;;;;;;4918492;29;20225;-67
2021/01/31 08:38:57;;;;;;;14.93;9.20;;;-4.30;99.90;;;;;;4918176;29;20210;-66
2021/01/31 08:41:37;;;;;;;15.10;9.45;;;-4.30;99.90;;;;;;4917517;29;20234;-66
2021/01/31 08:44:40;;;;;;;13.60;8.45;;;-4.30;99.90;;;;;;4917321;29;20290;-67
2021/01/31 08:47:07;;;;;;;17.02;8.73;;;-4.30;99.90;;;;;;4915927;29;20880;-68
2021/01/31 08:49:33;;;;;;;15.00;9.43;;;-4.30;99.90;;;;;;4914763;29;20585;-68
2021/01/31 08:52:02;;;;;;;11.60;7.47;;;-4.10;99.90;;;;;;4915809;29;20238;-67
2021/01/31 08:54:28;;;;;;;14.88;8.95;;;-4.00;99.90;;;;;;4917036;29;20647;-66
2021/01/31 08:56:58;;;;;;;20.00;12.60;;;-3.60;99.90;;;;;;4918207;29;20210;-68
2021/01/31 08:59:27;;;;;;;21.77;13.38;;;-3.20;99.90;;;;;;4915150;29;20203;-66
2021/01/31 09:02:17;;;;;;;20.98;12.82;;;-3.10;99.90;;;;;;4917013;29;20239;-67
2021/01/31 09:04:45;;;;;;;17.08;11.30;;;-2.90;99.90;;;;;;4910581;29;20214;-67
2021/01/31 09:07:13;;;;;;;14.48;9.90;;;-2.80;99.90;;;;;;4917433;29;20226;-67
2021/01/31 09:09:50;;;;;;;17.38;10.82;;;-2.60;99.90;;;;;;4917139;29;20207;-68
2021/01/31 09:12:20;;;;;;;15.18;9.32;;;-2.40;99.90;;;;;;4916385;29;20230;-68
2021/01/31 09:14:47;;;;;;;27.45;17.00;;;-2.30;99.90;;;;;;4907428;29;20227;-68
2021/01/31 09:17:21;;;;;;;45.88;23.83;;;-2.20;99.90;;;;;;4916814;29;20278;-67
2021/01/31 09:19:47;;;;;;;30.63;17.75;;;-2.10;99.90;;;;;;4898660;29;20245;-69
2021/01/31 09:22:20;;;;;;;19.33;11.80;;;-2.10;99.90;;;;;;4915925;29;20589;-68
2021/01/31 09:24:52;;;;;;;25.45;13.98;;;-2.00;99.90;;;;;;4915465;29;20570;-69
2021/01/31 09:27:22;;;;;;;30.25;16.30;;;-2.00;99.90;;;;;;4915767;29;20210;-70
2021/01/31 09:29:54;;;;;;;29.20;15.50;;;-1.90;99.90;;;;;;4900540;29;20213;-70
2021/01/31 09:32:25;;;;;;;18.40;10.85;;;-1.80;99.90;;;;;;4913384;29;20227;-69
2021/01/31 09:34:52;;;;;;;18.02;10.18;;;-1.80;99.90;;;;;;4914836;29;20210;-69
2021/01/31 09:37:22;;;;;;;12.82;9.25;;;-1.60;99.90;;;;;;4915019;29;20682;-68
2021/01/31 09:39:50;;;;;;;19.42;10.98;;;-1.50;99.90;;;;;;4914764;29;20333;-67
2021/01/31 09:42:17;;;;;;;14.63;9.88;;;-1.30;99.90;;;;;;4914381;29;20245;-67
2021/01/31 09:44:50;;;;;;;17.48;12.13;;;-1.10;99.90;;;;;;4916183;29;20614;-67
2021/01/31 09:47:19;;;;;;;21.90;13.98;;;-0.90;99.90;;;;;;4909487;29;20210;-68
2021/01/31 09:49:50;;;;;;;16.20;10.32;;;-0.70;99.90;;;;;;4919629;29;20310;-67
2021/01/31 09:52:16;;;;;;;12.90;9.02;;;-0.60;99.90;;;;;;4914279;29;20322;-67
2021/01/31 09:54:42;;;;;;;11.25;7.47;;;-0.50;99.90;;;;;;4900348;29;20223;-66
2021/01/31 09:57:20;;;;;;;12.18;8.45;;;-0.40;99.90;;;;;;4912968;29;20679;-65
2021/01/31 09:59:47;;;;;;;15.02;10.13;;;-0.40;99.90;;;;;;4914166;29;20254;-67
2021/01/31 10:02:18;;;;;;;14.40;9.85;;;-0.20;99.90;;;;;;4914236;29;20739;-66
2021/01/31 10:04:46;;;;;;;12.80;9.40;;;0.00;99.90;;;;;;4914971;29;20227;-67
2021/01/31 10:07:14;;;;;;;13.00;10.15;;;0.20;99.90;;;;;;4916351;29;20584;-67
2021/01/31 10:09:42;;;;;;;14.18;8.98;;;0.40;99.90;;;;;;4915816;29;20207;-67
2021/01/31 10:12:26;;;;;;;10.80;8.38;;;0.50;99.90;;;;;;4915080;29;20241;-68
2021/01/31 10:14:55;;;;;;;12.38;8.02;;;0.70;99.90;;;;;;4915531;29;20562;-68
2021/01/31 10:17:33;;;;;;;10.73;7.80;;;0.70;99.90;;;;;;4917080;29;20210;-67
2021/01/31 10:20:30;;;;;;;11.95;8.38;;;0.80;99.90;;;;;;4904329;29;20757;-67
2021/01/31 10:23:00;;;;;;;9.85;8.18;;;0.80;99.90;;;;;;4912005;29;20207;-68
2021/01/31 10:25:26;;;;;;;10.77;8.00;;;0.80;99.90;;;;;;4913718;29;20239;-68
2021/01/31 10:27:52;;;;;;;11.93;7.70;;;0.80;99.90;;;;;;4903286;29;20207;-69
2021/01/31 10:30:25;;;;;;;11.63;7.38;;;0.70;99.90;;;;;;4913096;29;20198;-68
2021/01/31 10:32:52;;;;;;;13.27;8.63;;;0.60;99.90;;;;;;4909882;29;20235;-67
2021/01/31 10:35:26;;;;;;;8.85;7.95;;;0.60;99.90;;;;;;4903691;29;20701;-70
2021/01/31 10:37:52;;;;;;;9.20;7.20;;;0.50;99.90;;;;;;4914421;29;20222;-67
2021/01/31 10:40:18;;;;;;;8.43;6.60;;;0.60;99.90;;;;;;4914613;29;20294;-67
2021/01/31 10:42:45;;;;;;;8.43;6.38;;;0.50;99.90;;;;;;4914088;29;20206;-67
2021/01/31 10:45:14;;;;;;;10.13;6.90;;;0.50;99.90;;;;;;4915238;29;20238;-67
2021/01/31 10:47:42;;;;;;;12.68;10.88;;;0.50;99.90;;;;;;4912170;29;20199;-68
2021/01/31 10:50:10;;;;;;;13.75;9.50;;;0.60;99.90;;;;;;4909517;29;20207;-68
2021/01/31 10:52:36;;;;;;;11.73;8.27;;;0.50;99.90;;;;;;4912198;29;20632;-68
2021/01/31 10:55:03;;;;;;;11.57;8.75;;;0.50;99.90;;;;;;4915535;29;20663;-68
2021/01/31 10:57:30;;;;;;;26.85;15.00;;;0.50;99.90;;;;;;4915132;29;20222;-68
2021/01/31 10:59:56;;;;;;;10.98;8.73;;;0.50;99.90;;;;;;4914679;29;20603;-68
2021/01/31 11:02:22;;;;;;;14.90;9.90;;;0.60;99.90;;;;;;4914337;29;20249;-68
2021/01/31 11:04:49;;;;;;;11.25;8.98;;;0.60;99.90;;;;;;4914439;29;20230;-68
2021/01/31 11:07:15;;;;;;;12.50;8.52;;;0.60;99.90;;;;;;4914332;29;20663;-68
2021/01/31 11:09:41;;;;;;;12.00;8.20;;;0.60;99.90;;;;;;4913261;29;20203;-68
2021/01/31 11:12:08;;;;;;;11.02;7.90;;;0.60;99.90;;;;;;4915274;29;20234;-68
2021/01/31 11:14:34;;;;;;;10.18;8.07;;;0.70;99.90;;;;;;4915710;29;20558;-68
2021/01/31 11:17:00;;;;;;;9.77;6.38;;;0.70;99.90;;;;;;4916428;29;20726;-67
2021/01/31 11:19:27;;;;;;;12.20;7.63;;;0.70;99.90;;;;;;4912772;29;20202;-67
2021/01/31 11:21:53;;;;;;;14.52;7.47;;;0.70;99.90;;;;;;4914643;29;20234;-67
2021/01/31 11:24:20;;;;;;;13.10;8.65;;;0.70;99.90;;;;;;4914065;29;20215;-67
2021/01/31 11:26:46;;;;;;;20.55;13.13;;;0.90;99.90;;;;;;4911427;29;20691;-67
2021/01/31 11:29:12;;;;;;;10.13;7.55;;;0.90;99.90;;;;;;4908470;29;20211;-66
2021/01/31 11:31:38;;;;;;;17.08;9.55;;;0.90;99.90;;;;;;4908856;29;20237;-68
2021/01/31 11:34:04;;;;;;;10.68;6.85;;;0.90;99.90;;;;;;4913351;29;20641;-67
2021/01/31 11:36:30;;;;;;;8.20;5.90;;;0.90;99.90;;;;;;4910888;29;20237;-67
2021/01/31 11:39:05;;;;;;;15.57;8.73;;;1.00;99.90;;;;;;4913212;29;20209;-68
2021/01/31 11:41:31;;;;;;;10.93;8.27;;;0.90;99.90;;;;;;4913143;29;20606;-68
2021/01/31 11:43:57;;;;;;;14.20;9.52;;;1.00;99.90;;;;;;4914629;29;20214;-67
2021/01/31 11:46:24;;;;;;;13.35;7.38;;;1.00;99.90;;;;;;4914620;29;20214;-67
2021/01/31 11:48:50;;;;;;;11.20;6.82;;;1.10;99.90;;;;;;4914598;29;20218;-68
2021/01/31 11:51:16;;;;;;;7.75;6.45;;;1.10;99.90;;;;;;4912058;29;20223;-68
2021/01/31 11:53:44;;;;;;;10.30;5.80;;;1.10;99.90;;;;;;4914880;29;20215;-67
2021/01/31 11:56:11;;;;;;;4.80;4.40;;;1.10;99.90;;;;;;4914927;29;20349;-68
2021/01/31 11:58:37;;;;;;;8.93;5.63;;;1.10;99.90;;;;;;4915593;29;20246;-67
2021/01/31 12:01:04;;;;;;;7.60;6.18;;;1.10;99.90;;;;;;4916625;29;20251;-67
2021/01/31 12:03:30;;;;;;;5.80;4.93;;;1.10;99.90;;;;;;4908281;29;20215;-67
2021/01/31 12:05:56;;;;;;;6.28;5.68;;;1.10;99.90;;;;;;4917102;29;20262;-69
2021/01/31 12:08:22;;;;;;;6.30;5.20;;;1.10;99.90;;;;;;4915074;29;20219;-69
2021/01/31 12:10:48;;;;;;;7.95;5.43;;;1.10;99.90;;;;;;4914716;29;20231;-69
2021/01/31 12:13:15;;;;;;;7.65;6.25;;;1.10;99.90;;;;;;4913757;29;20217;-68
2021/01/31 12:15:41;;;;;;;7.97;6.38;;;1.20;99.90;;;;;;4906218;29;20203;-68
2021/01/31 12:18:08;;;;;;;8.35;7.55;;;1.20;99.90;;;;;;4913075;29;20211;-68
2021/01/31 12:20:34;;;;;;;11.27;6.88;;;1.30;99.90;;;;;;4916728;29;20297;-67
2021/01/31 12:23:00;;;;;;;12.57;9.48;;;1.40;99.90;;;;;;4915716;29;20261;-67
2021/01/31 12:25:26;;;;;;;8.63;6.43;;;1.40;99.90;;;;;;4912895;29;20214;-68
2021/01/31 12:27:52;;;;;;;11.32;9.90;;;1.40;99.90;;;;;;4917348;29;20267;-66
2021/01/31 12:30:22;;;;;;;7.68;5.32;;;1.40;99.90;;;;;;4916867;29;20211;-68
2021/01/31 12:32:49;;;;;;;5.63;4.97;;;1.50;99.90;;;;;;4916273;29;20225;-67
2021/01/31 12:35:16;;;;;;;5.55;5.00;;;1.50;99.90;;;;;;4916175;29;20222;-67
2021/01/31 12:37:42;;;;;;;6.03;5.05;;;1.40;99.90;;;;;;4909241;29;20234;-68
2021/01/31 12:40:09;;;;;;;5.57;5.10;;;1.50;99.90;;;;;;4915907;29;20235;-67
2021/01/31 12:42:35;;;;;;;9.30;6.13;;;1.50;99.90;;;;;;4914534;29;20210;-68
2021/01/31 12:45:02;;;;;;;11.75;6.20;;;1.50;99.90;;;;;;4916333;29;20342;-67
2021/01/31 12:47:29;;;;;;;7.50;5.22;;;1.50;99.90;;;;;;4917208;29;20230;-67
2021/01/31 12:49:55;;;;;;;9.23;8.35;;;1.50;99.90;;;;;;4915849;29;20207;-67
2021/01/31 12:52:22;;;;;;;11.30;9.55;;;1.50;99.90;;;;;;4916227;29;20313;-68
2021/01/31 12:54:48;;;;;;;6.80;5.38;;;1.50;99.90;;;;;;4917722;29;20218;-67
2021/01/31 12:57:14;;;;;;;7.05;5.57;;;1.50;99.90;;;;;;4916503;29;20224;-67
2021/01/31 12:59:40;;;;;;;7.20;5.82;;;1.60;99.90;;;;;;4916198;29;20219;-67
2021/01/31 13:02:06;;;;;;;7.97;5.63;;;1.60;99.90;;;;;;4915126;29;20390;-67
2021/01/31 13:04:33;;;;;;;8.05;6.75;;;1.60;99.90;;;;;;4917475;29;20262;-67
2021/01/31 13:06:59;;;;;;;6.53;5.93;;;1.60;99.90;;;;;;4915934;29;20211;-68
2021/01/31 13:09:30;;;;;;;10.90;9.00;;;1.60;99.90;;;;;;4916091;29;20218;-68
2021/01/31 13:11:56;;;;;;;8.23;7.32;;;1.60;99.90;;;;;;4914510;29;20359;-67
2021/01/31 13:14:22;;;;;;;12.80;8.18;;;1.60;99.90;;;;;;4916910;29;20237;-68
2021/01/31 13:16:52;;;;;;;6.45;5.70;;;1.70;99.90;;;;;;4916507;29;20273;-67
2021/01/31 13:19:18;;;;;;;7.93;7.13;;;1.60;99.90;;;;;;4916135;29;20233;-67
2021/01/31 13:21:45;;;;;;;10.98;8.10;;;1.60;99.90;;;;;;4915024;29;20230;-68
2021/01/31 13:24:11;;;;;;;16.90;12.80;;;1.50;99.90;;;;;;4915370;29;20274;-67
2021/01/31 13:26:38;;;;;;;8.15;7.35;;;1.50;99.90;;;;;;4917203;29;20307;-67
2021/01/31 13:29:04;;;;;;;10.40;7.30;;;1.50;99.90;;;;;;4912542;29;20218;-67
2021/01/31 13:31:30;;;;;;;9.27;7.13;;;1.50;99.90;;;;;;4914912;29;20589;-67
2021/01/31 13:33:57;;;;;;;10.70;8.60;;;1.50;99.90;;;;;;4915773;29;20218;-67
2021/01/31 13:36:23;;;;;;;16.77;11.60;;;1.50;99.90;;;;;;4915123;29;20217;-68
2021/01/31 13:38:50;;;;;;;12.82;9.32;;;1.50;99.90;;;;;;4915030;29;20362;-67
2021/01/31 13:41:16;;;;;;;11.60;9.30;;;1.60;99.90;;;;;;4915314;29;20662;-67
2021/01/31 13:43:42;;;;;;;8.20;7.20;;;1.60;99.90;;;;;;4903565;29;20222;-68
2021/01/31 13:46:08;;;;;;;7.40;6.50;;;1.50;99.90;;;;;;4902652;29;20210;-67
2021/01/31 13:48:34;;;;;;;7.00;5.75;;;1.50;99.90;;;;;;4915973;29;20218;-67
2021/01/31 13:51:00;;;;;;;10.27;7.97;;;1.50;99.90;;;;;;4915255;29;20273;-66
2021/01/31 13:53:26;;;;;;;13.25;10.02;;;1.50;99.90;;;;;;4912927;29;20318;-67
2021/01/31 13:55:54;;;;;;;11.70;7.43;;;1.50;99.90;;;;;;4910285;29;20212;-67
2021/01/31 13:58:20;;;;;;;10.55;7.63;;;1.50;99.90;;;;;;4915614;29;20246;-66
2021/01/31 14:00:47;;;;;;;10.27;8.27;;;1.50;99.90;;;;;;4915595;29;20245;-65
2021/01/31 14:03:13;;;;;;;7.85;6.53;;;1.50;99.90;;;;;;4913691;29;20218;-69
2021/01/31 14:05:39;;;;;;;8.50;6.65;;;1.60;99.90;;;;;;4915115;29;20573;-68
2021/01/31 14:08:06;;;;;;;7.07;6.47;;;1.60;99.90;;;;;;4914764;29;20608;-68
2021/01/31 14:10:32;;;;;;;8.38;6.05;;;1.60;99.90;;;;;;4908124;29;20222;-68
2021/01/31 14:12:59;;;;;;;6.15;5.28;;;1.60;99.90;;;;;;4911944;29;20567;-67
2021/01/31 14:15:25;;;;;;;9.48;6.32;;;1.60;99.90;;;;;;4917410;29;20619;-66
2021/01/31 14:17:51;;;;;;;7.03;6.10;;;1.60;99.90;;;;;;4911169;29;20214;-66
2021/01/31 14:20:20;;;;;;;6.18;5.53;;;1.60;99.90;;;;;;4911189;29;20309;-66
2021/01/31 14:22:47;;;;;;;6.18;4.47;;;1.60;99.90;;;;;;4912950;29;20214;-66
2021/01/31 14:25:14;;;;;;;5.38;4.22;;;1.60;99.90;;;;;;4915328;29;20619;-66
2021/01/31 14:27:40;;;;;;;6.20;4.97;;;1.50;99.90;;;;;;4915699;29;20653;-66
2021/01/31 14:30:10;;;;;;;5.45;4.95;;;1.50;99.90;;;;;;4916009;29;20202;-68
2021/01/31 14:32:36;;;;;;;7.75;5.88;;;1.50;99.90;;;;;;4914269;29;20206;-67
2021/01/31 14:35:02;;;;;;;7.05;6.30;;;1.50;99.90;;;;;;4915436;29;20214;-67
2021/01/31 14:37:35;;;;;;;41.67;21.73;;;1.50;99.90;;;;;;4910818;29;20211;-67
2021/01/31 14:40:01;;;;;;;14.75;10.45;;;1.50;99.90;;;;;;4911372;29;20194;-68
2021/01/31 14:42:27;;;;;;;37.05;21.98;;;1.50;99.90;;;;;;4910733;29;20282;-67
2021/01/31 14:44:53;;;;;;;11.30;8.43;;;1.40;99.90;;;;;;4913533;29;20663;-67
2021/01/31 14:47:20;;;;;;;15.55;11.25;;;1.50;99.90;;;;;;4909971;29;20239;-66
2021/01/31 14:49:46;;;;;;;24.02;16.25;;;1.40;99.90;;;;;;4914372;29;20209;-67
2021/01/31 14:52:12;;;;;;;19.88;12.57;;;1.40;99.90;;;;;;4913334;29;20720;-67
2021/01/31 14:54:39;;;;;;;22.42;13.48;;;1.40;99.90;;;;;;4913173;29;20289;-66
2021/01/31 14:57:05;;;;;;;17.35;12.93;;;1.40;99.90;;;;;;4913125;29;20218;-66
2021/01/31 14:59:31;;;;;;;11.95;7.13;;;1.40;99.90;;;;;;4905809;29;20226;-67
2021/01/31 15:01:57;;;;;;;9.05;6.88;;;1.30;99.90;;;;;;4912946;29;20693;-67
2021/01/31 15:04:24;;;;;;;7.63;5.68;;;1.30;99.90;;;;;;4915327;29;20213;-66
2021/01/31 15:06:52;;;;;;;8.23;6.60;;;1.20;99.90;;;;;;4913434;29;20211;-67
2021/01/31 15:09:19;;;;;;;8.52;6.07;;;1.10;99.90;;;;;;4914046;29;20210;-68
2021/01/31 15:11:45;;;;;;;12.10;9.38;;;1.10;99.90;;;;;;4911456;29;20237;-68
2021/01/31 15:14:12;;;;;;;13.48;9.32;;;1.00;99.90;;;;;;4914110;29;20286;-68
2021/01/31 15:16:38;;;;;;;9.98;7.60;;;1.00;99.90;;;;;;4908418;29;20217;-67
2021/01/31 15:19:06;;;;;;;9.18;7.20;;;0.90;99.90;;;;;;4901660;29;20210;-67
2021/01/31 15:21:33;;;;;;;10.75;7.13;;;0.90;99.90;;;;;;4913312;29;20230;-67
2021/01/31 15:23:59;;;;;;;10.77;8.43;;;0.80;99.90;;;;;;4901201;29;20211;-66
2021/01/31 15:26:25;;;;;;;13.02;8.52;;;0.70;99.90;;;;;;4915622;29;20206;-66
2021/01/31 15:28:51;;;;;;;13.68;8.57;;;0.70;99.90;;;;;;4900867;29;20207;-66
2021/01/31 15:31:18;;;;;;;12.02;8.05;;;0.60;99.90;;;;;;4914288;29;20586;-67
2021/01/31 15:33:45;;;;;;;10.10;7.88;;;0.50;99.90;;;;;;4905476;29;20211;-67
2021/01/31 15:36:11;;;;;;;13.90;8.52;;;0.50;99.90;;;;;;4917424;29;20230;-67
2021/01/31 15:38:39;;;;;;;15.73;10.35;;;0.40;99.90;;;;;;4910669;29;20210;-67
2021/01/31 15:41:05;;;;;;;15.00;9.15;;;0.30;99.90;;;;;;4917346;29;20231;-67
2021/01/31 15:43:31;;;;;;;14.50;10.68;;;0.30;99.90;;;;;;4912209;29;20217;-67
2021/01/31 15:45:58;;;;;;;11.90;8.68;;;0.20;99.90;;;;;;4918145;29;20652;-67
2021/01/31 15:48:24;;;;;;;14.15;9.60;;;0.20;99.90;;;;;;4905984;29;20570;-68
2021/01/31 15:50:51;;;;;;;16.60;9.02;;;0.20;99.90;;;;;;4914404;29;20757;-66
2021/01/31 15:53:17;;;;;;;13.50;9.45;;;0.10;99.90;;;;;;4917393;29;20568;-66
2021/01/31 15:55:44;;;;;;;14.80;8.20;;;0.00;99.90;;;;;;4918031;29;20207;-66
2021/01/31 15:58:10;;;;;;;13.38;8.77;;;-0.10;99.90;;;;;;4907345;29;20207;-67
2021/01/31 16:00:37;;;;;;;12.13;8.95;;;-0.10;99.90;;;;;;4905337;29;20226;-67
2021/01/31 16:03:05;;;;;;;14.35;8.77;;;-0.20;99.90;;;;;;4917519;29;20234;-67
2021/01/31 16:05:33;;;;;;;10.82;8.20;;;-0.20;99.90;;;;;;4917040;29;20214;-67
2021/01/31 16:07:59;;;;;;;14.73;8.52;;;-0.30;99.90;;;;;;4917849;29;20576;-66
2021/01/31 16:10:25;;;;;;;19.83;11.10;;;-0.30;99.90;;;;;;4916221;29;20218;-67
2021/01/31 16:12:53;;;;;;;15.98;9.20;;;-0.30;99.90;;;;;;4914399;29;20313;-67
2021/01/31 16:15:21;;;;;;;13.55;9.50;;;-0.40;99.90;;;;;;4917343;29;20222;-67
2021/01/31 16:17:48;;;;;;;16.75;10.60;;;-0.40;99.90;;;;;;4911933;29;20699;-66
2021/01/31 16:20:15;;;;;;;18.67;12.20;;;-0.40;99.90;;;;;;4917137;29;20234;-67
2021/01/31 16:22:41;;;;;;;21.25;12.15;;;-0.50;99.90;;;;;;4914938;29;20553;-67
2021/01/31 16:25:08;;;;;;;14.35;9.60;;;-0.50;99.90;;;;;;4914902;29;20206;-67
2021/01/31 16:27:34;;;;;;;16.13;10.70;;;-0.50;99.90;;;;;;4916170;29;20730;-67
2021/01/31 16:30:01;;;;;;;16.70;11.57;;;-0.50;99.90;;;;;;4915805;29;20222;-68
2021/01/31 16:32:27;;;;;;;20.45;11.80;;;-0.60;99.90;;;;;;4915307;29;20234;-67
2021/01/31 16:34:53;;;;;;;17.75;11.18;;;-0.60;99.90;;;;;;4917385;29;20207;-68
2021/01/31 16:37:20;;;;;;;19.92;11.35;;;-0.60;99.90;;;;;;4915471;29;20816;-67
2021/01/31 16:39:46;;;;;;;18.35;11.45;;;-0.60;99.90;;;;;;4914965;29;20575;-67
2021/01/31 16:42:13;;;;;;;27.67;16.38;;;-0.60;99.90;;;;;;4915393;29;20601;-68
2021/01/31 16:44:39;;;;;;;23.67;14.15;;;-0.70;99.90;;;;;;4920085;29;20215;-67
2021/01/31 16:47:06;;;;;;;17.30;10.43;;;-0.70;99.90;;;;;;4917814;29;20682;-67
2021/01/31 16:49:33;;;;;;;20.77;11.52;;;-0.70;99.90;;;;;;4916526;29;20230;-67
2021/01/31 16:51:59;;;;;;;17.35;12.48;;;-0.80;99.90;;;;;;4918560;29;20302;-67
2021/01/31 16:54:25;;;;;;;18.17;12.93;;;-0.80;99.90;;;;;;4915292;29;20210;-66
2021/01/31 16:56:52;;;;;;;9.40;6.82;;;-0.80;99.90;;;;;;4917403;29;20211;-68
2021/01/31 16:59:19;;;;;;;15.18;11.63;;;-0.80;99.90;;;;;;4916845;29;20215;-67
2021/01/31 17:01:45;;;;;;;19.02;12.38;;;-0.90;99.90;;;;;;4916078;29;20230;-67
2021/01/31 17:04:12;;;;;;;24.40;12.30;;;-0.90;99.90;;;;;;4917213;29;20214;-67
2021/01/31 17:06:38;;;;;;;18.88;12.30;;;-0.90;99.90;;;;;;4916789;29;20210;-68
2021/01/31 17:09:06;;;;;;;24.83;12.95;;;-0.90;99.90;;;;;;4916466;29;20213;-66
2021/01/31 17:11:32;;;;;;;16.90;11.70;;;-0.90;99.90;;;;;;4917332;29;20215;-69
2021/01/31 17:13:59;;;;;;;19.80;12.32;;;-1.00;99.90;;;;;;4915438;29;20222;-69
2021/01/31 17:16:25;;;;;;;17.35;12.82;;;-1.00;99.90;;;;;;4915914;29;20199;-68
2021/01/31 17:18:51;;;;;;;20.88;12.82;;;-1.00;99.90;;;;;;4917602;29;20241;-69
2021/01/31 17:21:18;;;;;;;17.65;12.77;;;-1.00;99.90;;;;;;4916372;29;20230;-70
2021/01/31 17:23:44;;;;;;;21.02;13.85;;;-1.10;99.90;;;;;;4913096;29;20206;-69
2021/01/31 17:26:10;;;;;;;18.85;11.85;;;-1.10;99.90;;;;;;4916922;29;20206;-68
2021/01/31 17:28:36;;;;;;;22.20;14.43;;;-1.10;99.90;;;;;;4915938;29;20265;-68
2021/01/31 17:31:03;;;;;;;22.15;13.10;;;-1.10;99.90;;;;;;4916507;29;20235;-69
2021/01/31 17:33:29;;;;;;;21.05;13.55;;;-1.20;99.90;;;;;;4915744;29;20218;-67
2021/01/31 17:35:56;;;;;;;22.33;13.10;;;-1.20;99.90;;;;;;4915873;29;20255;-68
2021/01/31 17:38:23;;;;;;;22.05;14.75;;;-1.20;99.90;;;;;;4915284;29;20266;-68
2021/01/31 17:40:49;;;;;;;18.80;12.20;;;-1.20;99.90;;;;;;4916529;29;20286;-67
2021/01/31 17:43:16;;;;;;;25.27;13.55;;;-1.20;99.90;;;;;;4914376;29;20217;-67
2021/01/31 17:45:42;;;;;;;19.90;13.43;;;-1.30;99.90;;;;;;4915414;29;20218;-67
2021/01/31 17:48:09;;;;;;;24.80;13.82;;;-1.30;99.90;;;;;;4915915;29;20254;-66
2021/01/31 17:50:36;;;;;;;23.88;13.98;;;-1.30;99.90;;;;;;4917640;29;20223;-68
2021/01/31 17:53:02;;;;;;;19.95;13.05;;;-1.40;99.90;;;;;;4913915;29;20224;-67
2021/01/31 17:55:29;;;;;;;17.92;12.85;;;-1.40;99.90;;;;;;4915428;29;20585;-66